Time;durP1;ratioP1;P1;durP2;ratioP2;P2;SDS_P1;SDS_P2;PMS_P1;PMS_P2;Temp;Humidity;BMP_temperature;BMP_pressure;BME280_temperature;BME280_humidity;BME280_pressure;Samples;Min_cycle;Max_cycle;Signal;HPM_P1;HPM_P2
2022/12/19 00:02:20;;;;;;;13.52;3.42;;;9.90;99.90;;;;;;6314423;22;20415;-76
2022/12/19 00:04:48;;;;;;;8.57;2.80;;;9.10;99.90;;;;;;6313462;22;20022;-76
2022/12/19 00:07:15;;;;;;;9.40;2.63;;;9.10;99.90;;;;;;6351985;22;20015;-76
2022/12/19 00:09:43;;;;;;;6.95;2.40;;;9.20;99.90;;;;;;6341544;22;20014;-76
2022/12/19 00:12:10;;;;;;;8.60;2.28;;;10.30;99.90;;;;;;6287869;22;20038;-77
2022/12/19 00:14:46;;;;;;;8.75;2.33;;;9.20;99.90;;;;;;6314160;22;20431;-77
2022/12/19 00:17:13;;;;;;;7.35;2.30;;;9.30;99.90;;;;;;6351229;22;20011;-77
2022/12/19 00:19:41;;;;;;;8.13;2.20;;;9.30;99.90;;;;;;6288495;22;20010;-76
2022/12/19 00:22:08;;;;;;;7.65;2.15;;;9.40;99.90;;;;;;6288659;22;20320;-77
2022/12/19 00:24:37;;;;;;;7.25;2.05;;;9.70;99.90;;;;;;6287292;22;20015;-77
2022/12/19 00:27:05;;;;;;;6.57;2.15;;;9.50;99.90;;;;;;6351852;22;20319;-77
2022/12/19 00:29:32;;;;;;;7.38;1.85;;;9.60;99.90;;;;;;6341411;22;20412;-76
2022/12/19 00:32:02;;;;;;;9.20;2.20;;;9.70;99.90;;;;;;6339879;22;20435;-76
2022/12/19 00:34:29;;;;;;;10.30;2.30;;;9.70;99.90;;;;;;6341221;22;20022;-76
2022/12/19 00:36:57;;;;;;;9.75;2.15;;;9.70;99.90;;;;;;6323979;22;20026;-76
2022/12/19 00:39:28;;;;;;;9.55;2.22;;;9.90;99.90;;;;;;6324574;22;20007;-76
2022/12/19 00:41:55;;;;;;;8.02;1.90;;;10.40;99.90;;;;;;6313394;22;20018;-76
2022/12/19 00:44:23;;;;;;;7.90;1.77;;;9.90;99.90;;;;;;6287380;22;20015;-77
2022/12/19 00:46:52;;;;;;;9.52;2.13;;;9.90;99.90;;;;;;6325468;22;20015;-76
2022/12/19 00:49:20;;;;;;;5.80;1.90;;;10.00;99.90;;;;;;6314601;22;20011;-77
2022/12/19 00:51:48;;;;;;;7.55;1.90;;;10.00;99.90;;;;;;6312448;22;20354;-77
2022/12/19 00:54:15;;;;;;;8.23;1.88;;;10.00;99.90;;;;;;6313547;22;20360;-77
2022/12/19 00:56:43;;;;;;;7.82;2.10;;;10.00;99.90;;;;;;6312528;22;20435;-76
2022/12/19 00:59:10;;;;;;;7.60;2.28;;;10.00;99.90;;;;;;6341123;22;20011;-76
2022/12/19 01:01:39;;;;;;;5.82;1.90;;;11.10;99.90;;;;;;6314080;22;20014;-76
2022/12/19 01:04:12;;;;;;;12.07;2.80;;;10.50;99.90;;;;;;6286769;22;20019;-76
2022/12/19 01:06:58;;;;;;;15.68;2.63;;;10.10;99.90;;;;;;6351273;22;20010;-76
2022/12/19 01:09:32;;;;;;;14.30;3.08;;;11.30;99.90;;;;;;6314457;22;20444;-77
2022/12/19 01:14:53;;;;;;;13.68;3.10;;;10.20;99.90;;;;;;6288024;22;20423;-76
2022/12/19 01:17:24;;;;;;;9.43;2.70;;;10.30;99.90;;;;;;6322679;22;20011;-76
2022/12/19 01:19:52;;;;;;;10.70;2.75;;;10.60;99.90;;;;;;6288527;22;20022;-77
2022/12/19 01:22:20;;;;;;;15.00;3.00;;;10.80;99.90;;;;;;6341025;22;20007;-76
2022/12/19 01:24:47;;;;;;;12.93;3.03;;;10.90;99.90;;;;;;6286935;22;20312;-76
2022/12/19 01:27:15;;;;;;;15.48;2.60;;;10.40;99.90;;;;;;6313822;22;20015;-76
2022/12/19 01:29:42;;;;;;;10.65;3.20;;;10.40;99.90;;;;;;6341044;22;20015;-77
2022/12/19 01:32:20;;;;;;;14.15;3.28;;;10.50;99.90;;;;;;6314241;22;20019;-76
2022/12/19 01:34:48;;;;;;;11.63;2.80;;;10.50;99.90;;;;;;6313510;22;20007;-76
2022/12/19 01:37:16;;;;;;;14.68;2.90;;;10.50;99.90;;;;;;6297297;22;20014;-76
2022/12/19 01:39:43;;;;;;;13.82;2.83;;;10.50;99.90;;;;;;6313711;22;20011;-76
2022/12/19 01:42:18;;;;;;;14.85;3.00;;;10.70;99.90;;;;;;6340726;22;20007;-76
2022/12/19 01:45:08;;;;;;;15.80;2.92;;;10.60;99.90;;;;;;6312418;22;20442;-76
2022/12/19 01:47:40;;;;;;;12.65;2.80;;;10.60;99.90;;;;;;6299705;22;20021;-76
2022/12/19 01:50:13;;;;;;;12.40;3.30;;;11.30;99.90;;;;;;6312763;22;20082;-76
2022/12/19 01:52:41;;;;;;;16.25;3.15;;;10.60;99.90;;;;;;6349432;22;20240;-77
2022/12/19 01:55:10;;;;;;;10.13;2.60;;;10.60;99.90;;;;;;6298043;22;20018;-76
2022/12/19 01:57:38;;;;;;;15.68;3.30;;;10.70;99.90;;;;;;6349991;22;20006;-76
2022/12/19 02:00:11;;;;;;;11.20;2.75;;;10.90;99.90;;;;;;6313361;22;20014;-76
2022/12/19 02:02:47;;;;;;;15.80;3.25;;;10.70;99.90;;;;;;6351009;22;20018;-76
2022/12/19 02:05:15;;;;;;;14.70;2.90;;;10.70;99.90;;;;;;6322495;22;20022;-76
2022/12/19 02:07:43;;;;;;;17.30;2.88;;;10.80;99.90;;;;;;6324697;22;20018;-76
2022/12/19 02:10:11;;;;;;;11.95;3.22;;;11.30;99.90;;;;;;6286715;22;20018;-76
2022/12/19 02:12:42;;;;;;;12.07;3.40;;;11.00;99.90;;;;;;6262116;22;20019;-76
2022/12/19 02:15:13;;;;;;;15.02;3.10;;;10.80;99.90;;;;;;6262500;22;20427;-76
2022/12/19 02:17:48;;;;;;;16.90;3.42;;;10.80;99.90;;;;;;6322465;22;20014;-77
2022/12/19 02:20:35;;;;;;;15.02;3.20;;;11.10;99.90;;;;;;6324508;22;20007;-76
2022/12/19 02:23:31;;;;;;;16.95;3.45;;;10.80;99.90;;;;;;6323940;22;20011;-76
2022/12/19 02:26:20;;;;;;;14.95;3.22;;;10.90;99.90;;;;;;6262311;22;20327;-76
2022/12/19 02:29:02;;;;;;;19.42;3.53;;;10.90;99.90;;;;;;6298444;22;20323;-76
2022/12/19 02:31:54;;;;;;;20.15;3.40;;;10.90;99.90;;;;;;6322773;22;20015;-76
2022/12/19 02:34:32;;;;;;;14.75;3.60;;;10.90;99.90;;;;;;6287213;22;20025;-77
2022/12/19 02:37:16;;;;;;;17.45;4.20;;;11.00;99.90;;;;;;6286655;22;20011;-76
2022/12/19 02:40:03;;;;;;;24.25;5.07;;;11.20;99.90;;;;;;6262804;22;20015;-77
2022/12/19 02:42:37;;;;;;;32.00;5.13;;;11.00;99.90;;;;;;6287451;22;20427;-76
2022/12/19 02:45:07;;;;;;;24.23;4.60;;;11.30;99.90;;;;;;6322205;22;20315;-76
2022/12/19 02:47:36;;;;;;;26.63;5.20;;;11.00;99.90;;;;;;6323634;22;20018;-77
2022/12/19 02:50:06;;;;;;;27.00;5.80;;;11.20;99.90;;;;;;6311809;22;20030;-76
2022/12/19 02:52:34;;;;;;;26.23;4.72;;;10.90;99.90;;;;;;6262317;22;20319;-76
2022/12/19 02:55:19;;;;;;;19.70;4.50;;;11.00;99.90;;;;;;6323655;22;20014;-76
2022/12/19 02:58:14;;;;;;;25.15;5.00;;;11.00;99.90;;;;;;6322719;22;20419;-77
2022/12/19 03:01:03;;;;;;;22.70;4.35;;;10.90;99.90;;;;;;6287867;22;20014;-76
2022/12/19 03:04:10;;;;;;;23.33;4.50;;;10.90;99.90;;;;;;6322220;22;20010;-77
2022/12/19 03:07:05;;;;;;;22.35;4.18;;;10.90;99.90;;;;;;6270286;22;20045;-76
2022/12/19 03:10:04;;;;;;;22.58;4.50;;;10.90;99.90;;;;;;6325639;22;20319;-77
2022/12/19 03:12:39;;;;;;;19.02;4.05;;;10.90;99.90;;;;;;6341939;22;20018;-77
2022/12/19 03:15:07;;;;;;;17.73;4.35;;;10.90;99.90;;;;;;6325713;22;20011;-77
2022/12/19 03:17:38;;;;;;;18.75;4.20;;;11.00;99.90;;;;;;6324121;22;20424;-77
2022/12/19 03:20:35;;;;;;;24.17;4.40;;;11.30;99.90;;;;;;6341951;22;20010;-77
2022/12/19 03:23:02;;;;;;;26.23;4.85;;;11.00;99.90;;;;;;6325833;22;20006;-77
2022/12/19 03:25:31;;;;;;;23.35;5.00;;;10.90;99.90;;;;;;6287781;22;20025;-77
2022/12/19 03:28:02;;;;;;;27.58;5.60;;;11.00;99.90;;;;;;6325239;22;20015;-77
2022/12/19 03:30:32;;;;;;;29.75;6.07;;;11.00;99.90;;;;;;6350939;22;20407;-76
2022/12/19 03:33:01;;;;;;;26.77;5.95;;;11.00;99.90;;;;;;6342596;22;20026;-77
2022/12/19 03:35:32;;;;;;;36.65;5.80;;;11.20;99.90;;;;;;6341635;22;20011;-77
2022/12/19 03:38:03;;;;;;;29.38;5.57;;;11.10;99.90;;;;;;6350993;22;20026;-77
2022/12/19 03:40:35;;;;;;;33.80;6.15;;;11.00;99.90;;;;;;6314816;22;20073;-77
2022/12/19 03:43:08;;;;;;;29.55;5.70;;;12.80;99.90;;;;;;6325121;22;20018;-77
2022/12/19 03:45:56;;;;;;;29.08;5.75;;;11.00;99.90;;;;;;6326396;22;20015;-77
2022/12/19 03:48:26;;;;;;;33.58;6.65;;;11.00;99.90;;;;;;6315068;22;20014;-77
2022/12/19 03:51:18;;;;;;;42.20;6.10;;;11.00;99.90;;;;;;6339651;22;20023;-77
2022/12/19 03:53:45;;;;;;;34.80;6.07;;;11.00;99.90;;;;;;6314468;22;20323;-77
2022/12/19 03:56:24;;;;;;;39.83;7.07;;;11.00;99.90;;;;;;6315048;22;20014;-77
2022/12/19 03:59:00;;;;;;;30.90;6.47;;;11.70;99.90;;;;;;6324607;22;20026;-77
2022/12/19 04:01:31;;;;;;;35.45;6.57;;;11.50;99.90;;;;;;6352124;22;20026;-77
2022/12/19 04:04:00;;;;;;;33.70;6.55;;;11.30;99.90;;;;;;6313088;22;20010;-77
2022/12/19 04:06:33;;;;;;;32.92;6.32;;;11.00;99.90;;;;;;6352563;22;20037;-77
2022/12/19 04:09:01;;;;;;;29.95;6.60;;;11.00;99.90;;;;;;6325425;22;20022;-76
2022/12/19 04:11:33;;;;;;;;;;;11.00;99.90;;;;;;6340563;22;20015;-76
2022/12/19 04:14:06;;;;;;;32.67;6.25;;;11.00;99.90;;;;;;6351998;22;19914;-77
2022/12/19 04:16:40;;;;;;;39.58;6.45;;;11.10;99.90;;;;;;6350353;22;20011;-77
2022/12/19 04:19:20;;;;;;;26.75;5.47;;;11.00;99.90;;;;;;6314532;22;20022;-77
2022/12/19 04:21:55;;;;;;;31.83;6.47;;;11.10;99.90;;;;;;6352161;22;20011;-77
2022/12/19 04:24:32;;;;;;;33.33;6.13;;;11.00;99.90;;;;;;6350634;22;20014;-77
2022/12/19 04:27:02;;;;;;;22.58;5.03;;;11.10;99.90;;;;;;6314027;22;20018;-76
2022/12/19 04:29:34;;;;;;;27.17;5.57;;;11.00;99.90;;;;;;6342039;22;20037;-76
2022/12/19 04:32:04;;;;;;;34.22;6.55;;;11.10;99.90;;;;;;6350303;22;20021;-77
2022/12/19 04:34:32;;;;;;;33.17;5.85;;;11.10;99.90;;;;;;6314425;22;20014;-77
2022/12/19 04:37:04;;;;;;;34.05;6.05;;;11.10;99.90;;;;;;6350362;22;20018;-77
2022/12/19 04:39:32;;;;;;;28.13;5.93;;;11.10;99.90;;;;;;6340240;22;20011;-76
2022/12/19 04:41:59;;;;;;;30.38;6.13;;;11.20;99.90;;;;;;6341816;22;20010;-76
2022/12/19 04:44:27;;;;;;;34.35;6.30;;;11.30;99.90;;;;;;6313252;22;20022;-77
2022/12/19 04:46:54;;;;;;;25.95;5.60;;;11.10;99.90;;;;;;6314361;22;20014;-77
2022/12/19 04:49:22;;;;;;;32.13;5.28;;;11.10;99.90;;;;;;6341353;22;20011;-77
2022/12/19 04:51:50;;;;;;;;;;;11.20;99.90;;;;;;6340319;22;20010;-77
2022/12/19 04:54:18;;;;;;;27.92;4.32;;;11.20;99.90;;;;;;6341166;22;19927;-77
2022/12/19 04:56:45;;;;;;;26.60;5.57;;;11.20;99.90;;;;;;6323644;22;20006;-77
2022/12/19 04:59:12;;;;;;;29.05;4.82;;;11.20;99.90;;;;;;6341186;22;20013;-77
2022/12/19 05:01:40;;;;;;;19.60;4.50;;;11.20;99.90;;;;;;6341411;22;20011;-78
2022/12/19 05:04:07;;;;;;;19.98;4.45;;;11.30;99.90;;;;;;6340193;22;20017;-77
2022/12/19 05:06:35;;;;;;;19.98;4.10;;;11.20;99.90;;;;;;6313743;22;20019;-78
2022/12/19 05:09:03;;;;;;;24.48;4.75;;;11.30;99.90;;;;;;6341623;22;20018;-78
2022/12/19 05:11:30;;;;;;;18.88;4.28;;;11.30;99.90;;;;;;6339683;22;20014;-77
2022/12/19 05:13:58;;;;;;;24.90;4.32;;;11.30;99.90;;;;;;6314171;22;20019;-77
2022/12/19 05:16:26;;;;;;;;;;;11.30;99.90;;;;;;6324665;22;20404;-77
2022/12/19 05:18:54;;;;;;;18.70;3.63;;;12.60;99.90;;;;;;6313617;22;19914;-77
2022/12/19 05:21:22;;;;;;;25.67;3.80;;;11.30;99.90;;;;;;6340957;22;20010;-77
2022/12/19 05:23:50;;;;;;;;;;;11.30;99.90;;;;;;6313138;22;20018;-77
2022/12/19 05:26:18;;;;;;;15.95;3.03;;;11.30;99.90;;;;;;6324691;22;19941;-78
2022/12/19 05:28:46;;;;;;;19.83;2.90;;;11.30;99.90;;;;;;6288015;22;20412;-77
2022/12/19 05:31:17;;;;;;;14.10;2.75;;;11.90;99.90;;;;;;6339493;22;20018;-77
2022/12/19 05:33:45;;;;;;;9.85;1.98;;;11.30;99.90;;;;;;6351041;22;20015;-77
2022/12/19 05:36:13;;;;;;;;;;;11.50;99.90;;;;;;6289059;22;20011;-77
2022/12/19 05:38:41;;;;;;;9.65;2.28;;;11.30;99.90;;;;;;6339993;22;19933;-77
2022/12/19 05:41:14;;;;;;;13.00;2.65;;;11.30;99.90;;;;;;6314182;22;20007;-77
2022/12/19 05:43:42;;;;;;;14.15;3.00;;;11.30;99.90;;;;;;6312187;22;20015;-77
2022/12/19 05:46:11;;;;;;;15.75;3.03;;;11.30;99.90;;;;;;6350965;22;20022;-77
2022/12/19 05:48:38;;;;;;;;;;;11.30;99.90;;;;;;6314628;22;20015;-77
2022/12/19 05:51:06;;;;;;;17.30;3.42;;;11.30;99.90;;;;;;6287019;22;19914;-77
2022/12/19 05:53:38;;;;;;;20.17;4.18;;;11.30;99.90;;;;;;6313546;22;20023;-77
2022/12/19 05:56:15;;;;;;;16.08;3.70;;;11.30;99.90;;;;;;6351099;22;20010;-76
2022/12/19 05:58:43;;;;;;;19.98;4.20;;;11.40;99.90;;;;;;6322590;22;20018;-77
2022/12/19 06:01:23;;;;;;;22.83;3.60;;;11.40;99.90;;;;;;6340923;22;20026;-76
2022/12/19 06:03:51;;;;;;;18.58;3.88;;;12.40;99.90;;;;;;6322791;22;20014;-77
2022/12/19 06:06:24;;;;;;;21.52;3.72;;;11.50;99.90;;;;;;6324134;22;20026;-76
2022/12/19 06:08:56;;;;;;;24.45;3.65;;;11.40;99.90;;;;;;6323891;22;20015;-76
2022/12/19 06:11:25;;;;;;;26.27;3.70;;;11.40;99.90;;;;;;6322784;22;20029;-76
2022/12/19 06:13:52;;;;;;;18.35;3.28;;;11.40;99.90;;;;;;6340570;22;20018;-76
2022/12/19 06:16:21;;;;;;;14.95;3.35;;;11.40;99.90;;;;;;6351198;22;20018;-77
2022/12/19 06:18:49;;;;;;;17.23;2.97;;;11.40;99.90;;;;;;6311721;22;20015;-77
2022/12/19 06:21:19;;;;;;;10.02;2.47;;;13.60;99.90;;;;;;6340578;22;20018;-77
2022/12/19 06:23:48;;;;;;;15.38;2.75;;;11.50;99.90;;;;;;6312179;22;20331;-77
2022/12/19 06:26:18;;;;;;;9.75;2.50;;;11.40;99.90;;;;;;6350900;22;20300;-76
2022/12/19 06:28:51;;;;;;;12.23;2.30;;;11.90;99.90;;;;;;6324105;22;20446;-77
2022/12/19 06:31:21;;;;;;;11.60;2.80;;;11.40;99.90;;;;;;6349677;22;20015;-77
2022/12/19 06:33:49;;;;;;;13.98;2.70;;;11.40;99.90;;;;;;6313202;22;20023;-77
2022/12/19 06:36:21;;;;;;;;;;;11.80;99.90;;;;;;6324448;22;20011;-77
2022/12/19 06:38:49;;;;;;;15.05;3.55;;;11.40;99.90;;;;;;6311772;22;19929;-77
2022/12/19 06:44:06;;;;;;;17.35;3.72;;;11.40;99.90;;;;;;6324460;22;20006;-77
2022/12/19 06:46:35;;;;;;;18.15;4.47;;;12.30;99.90;;;;;;6352745;22;20026;-77
2022/12/19 06:49:04;;;;;;;22.92;4.93;;;11.40;99.90;;;;;;6315053;22;20424;-77
2022/12/19 06:51:32;;;;;;;30.77;4.80;;;11.40;99.90;;;;;;6340839;22;20015;-77
2022/12/19 06:53:59;;;;;;;21.92;4.50;;;11.40;99.90;;;;;;6342003;22;20018;-76
2022/12/19 06:56:28;;;;;;;27.08;4.55;;;11.40;99.90;;;;;;6324640;22;20011;-76
2022/12/19 06:58:55;;;;;;;22.35;4.38;;;11.40;99.90;;;;;;6342132;22;20014;-76
2022/12/19 07:01:43;;;;;;;22.42;4.32;;;11.60;99.90;;;;;;6342810;22;20007;-76
2022/12/19 07:04:17;;;;;;;19.98;4.22;;;11.50;99.90;;;;;;6351603;22;20011;-77
2022/12/19 07:06:45;;;;;;;20.00;4.13;;;12.00;99.90;;;;;;6352901;22;20011;-76
2022/12/19 07:09:19;;;;;;;21.45;4.28;;;11.50;99.90;;;;;;6326390;22;20015;-77
2022/12/19 07:11:46;;;;;;;21.65;4.43;;;12.10;99.90;;;;;;6324029;22;20034;-77
2022/12/19 07:14:14;;;;;;;18.58;3.75;;;11.50;99.90;;;;;;6342081;22;20015;-77
2022/12/19 07:16:41;;;;;;;14.85;3.40;;;11.50;99.90;;;;;;6288194;22;20030;-77
2022/12/19 07:19:09;;;;;;;24.67;3.72;;;11.50;99.90;;;;;;6342005;22;20019;-77
2022/12/19 07:21:38;;;;;;;20.77;3.80;;;11.50;99.90;;;;;;6342043;22;20018;-77
2022/12/19 07:24:10;;;;;;;18.50;3.85;;;11.50;99.90;;;;;;6313489;22;20064;-77
2022/12/19 07:26:38;;;;;;;22.73;3.90;;;11.50;99.90;;;;;;6352878;22;20010;-76
2022/12/19 07:29:06;;;;;;;20.48;3.58;;;11.50;99.90;;;;;;6315004;22;20011;-77
2022/12/19 07:31:35;;;;;;;22.60;4.10;;;11.60;99.90;;;;;;6340439;22;20015;-76
2022/12/19 07:34:03;;;;;;;22.13;3.53;;;12.30;99.90;;;;;;6341878;22;20026;-76
2022/12/19 07:36:31;;;;;;;;;;;11.50;99.90;;;;;;6351370;22;20033;-76
2022/12/19 07:38:58;;;;;;;16.73;3.28;;;11.50;99.90;;;;;;6341303;22;19914;-77
2022/12/19 07:41:26;;;;;;;12.15;3.60;;;11.60;99.90;;;;;;6342132;22;20427;-77
2022/12/19 07:43:53;;;;;;;13.75;3.08;;;11.50;99.90;;;;;;6313549;22;20015;-76
2022/12/19 07:46:21;;;;;;;11.52;2.90;;;11.50;99.90;;;;;;6352329;22;20015;-76
2022/12/19 07:48:49;;;;;;;9.45;2.60;;;12.30;99.90;;;;;;6341779;22;20320;-77
2022/12/19 07:51:17;;;;;;;7.97;2.88;;;11.50;99.90;;;;;;6286914;22;20319;-76
2022/12/19 07:53:44;;;;;;;14.15;3.45;;;12.10;99.90;;;;;;6314783;22;20033;-77
2022/12/19 07:56:12;;;;;;;10.35;2.60;;;11.50;99.90;;;;;;6289096;22;20311;-77
2022/12/19 07:58:40;;;;;;;15.27;2.88;;;11.90;99.90;;;;;;6313485;22;20014;-77
2022/12/19 08:01:07;;;;;;;12.73;3.25;;;11.50;99.90;;;;;;6314652;22;20316;-76
2022/12/19 08:03:35;;;;;;;14.77;4.05;;;11.50;99.90;;;;;;6313464;22;20427;-76
2022/12/19 08:06:05;;;;;;;16.75;4.45;;;11.50;99.90;;;;;;6315116;22;20037;-79
2022/12/19 08:08:36;;;;;;;20.15;3.90;;;11.50;99.90;;;;;;6326354;22;20018;-76
2022/12/19 08:11:12;;;;;;;18.67;3.97;;;11.50;99.90;;;;;;6340023;22;20010;-76
2022/12/19 08:13:40;;;;;;;19.60;4.55;;;11.50;99.90;;;;;;6314253;22;20018;-76
2022/12/19 08:16:14;;;;;;;22.35;4.88;;;11.50;99.90;;;;;;6314071;22;20025;-76
2022/12/19 08:18:41;;;;;;;19.80;4.53;;;11.50;99.90;;;;;;6313004;22;20015;-76
2022/12/19 08:21:09;;;;;;;24.67;5.45;;;11.50;99.90;;;;;;6341741;22;20010;-76
2022/12/19 08:23:40;;;;;;;18.38;4.60;;;11.50;99.90;;;;;;6286896;22;20011;-76
2022/12/19 08:26:11;;;;;;;22.70;4.38;;;11.90;99.90;;;;;;6313885;22;20439;-76
2022/12/19 08:28:39;;;;;;;18.02;4.55;;;11.50;99.90;;;;;;6351703;22;20014;-75
2022/12/19 08:31:08;;;;;;;30.05;5.20;;;11.50;99.90;;;;;;6312194;22;20030;-76
2022/12/19 08:33:36;;;;;;;23.45;5.07;;;11.60;99.90;;;;;;6262622;22;20312;-77
2022/12/19 08:36:06;;;;;;;27.23;5.30;;;11.60;99.90;;;;;;6288157;22;20029;-81
2022/12/19 08:38:35;;;;;;;29.85;5.00;;;9.50;99.90;;;;;;6339496;22;20017;-78
2022/12/19 08:41:03;;;;;;;22.50;4.35;;;11.50;99.90;;;;;;6288331;22;20312;-78
2022/12/19 08:43:31;;;;;;;22.88;5.00;;;11.50;99.90;;;;;;6312767;22;20015;-79
2022/12/19 08:45:58;;;;;;;;;;;12.10;99.90;;;;;;6313910;22;20026;-78
2022/12/19 08:48:26;;;;;;;21.48;5.05;;;11.50;99.90;;;;;;6314215;22;19915;-78
2022/12/19 08:50:59;;;;;;;24.73;4.90;;;11.50;99.90;;;;;;6339530;22;20022;-79
2022/12/19 08:53:31;;;;;;;19.00;4.28;;;12.10;99.90;;;;;;6319210;22;20015;-78
2022/12/19 08:56:10;;;;;;;18.33;3.47;;;11.50;99.90;;;;;;6298612;22;20011;-78
2022/12/19 08:58:40;;;;;;;16.95;3.88;;;11.50;99.90;;;;;;6286438;22;20307;-78
2022/12/19 09:01:12;;;;;;;22.05;5.05;;;11.50;99.90;;;;;;6312983;22;20014;-76
2022/12/19 09:03:44;;;;;;;24.83;5.10;;;11.60;99.90;;;;;;6286392;22;20018;-77
2022/12/19 09:06:32;;;;;;;30.33;5.05;;;11.60;99.90;;;;;;6302597;22;20011;-77
2022/12/19 09:08:59;;;;;;;34.45;5.82;;;11.60;99.90;;;;;;6314473;22;20293;-77
2022/12/19 09:11:27;;;;;;;31.13;5.18;;;11.60;99.90;;;;;;6313601;22;20011;-77
2022/12/19 09:13:56;;;;;;;24.45;4.78;;;11.60;99.90;;;;;;6341085;22;20011;-77
2022/12/19 09:16:26;;;;;;;25.90;4.60;;;11.60;99.90;;;;;;6287949;22;20065;-76
2022/12/19 09:18:57;;;;;;;27.13;4.80;;;11.70;99.90;;;;;;6340970;22;20021;-77
2022/12/19 09:21:30;;;;;;;22.73;4.00;;;11.70;99.90;;;;;;6351583;22;20014;-76
2022/12/19 09:23:59;;;;;;;25.52;4.68;;;11.70;99.90;;;;;;6350578;22;20011;-77
2022/12/19 09:26:37;;;;;;;18.88;4.03;;;11.70;99.90;;;;;;6351282;22;20011;-77
2022/12/19 09:29:06;;;;;;;25.60;4.22;;;11.70;99.90;;;;;;6287557;22;20022;-77
2022/12/19 09:31:48;;;;;;;22.90;4.57;;;11.70;99.90;;;;;;6349998;22;20011;-77
2022/12/19 09:34:27;;;;;;;22.10;4.28;;;11.80;99.90;;;;;;6264187;22;20439;-77
2022/12/19 09:37:09;;;;;;;17.77;3.42;;;11.70;99.90;;;;;;6263410;22;20025;-76
2022/12/19 09:39:45;;;;;;;17.98;3.53;;;12.10;99.90;;;;;;6325622;22;20034;-76
2022/12/19 09:42:35;;;;;;;16.75;3.38;;;11.80;99.90;;;;;;6340630;22;20011;-77
2022/12/19 09:45:10;;;;;;;18.85;3.45;;;11.80;99.90;;;;;;6350009;22;20006;-80
2022/12/19 09:47:57;;;;;;;17.85;3.10;;;11.80;99.90;;;;;;6327284;22;20011;-78
2022/12/19 09:50:34;;;;;;;21.00;3.15;;;11.80;99.90;;;;;;6297184;22;20011;-77
2022/12/19 09:53:10;;;;;;;17.35;2.78;;;11.80;99.90;;;;;;6287706;22;20027;-76
2022/12/19 09:55:40;;;;;;;14.52;2.97;;;11.80;99.90;;;;;;6262343;22;20419;-76
2022/12/19 09:58:27;;;;;;;13.20;2.28;;;11.80;99.90;;;;;;6311774;22;20308;-79
2022/12/19 10:00:57;;;;;;;7.07;2.53;;;11.80;99.90;;;;;;6298676;22;20033;-76
2022/12/19 10:03:33;;;;;;;10.38;2.38;;;11.80;99.90;;;;;;6261852;22;20903;-77
2022/12/19 10:06:18;;;;;;;8.77;2.15;;;11.80;99.90;;;;;;6289207;22;20022;-77
2022/12/19 10:09:15;;;;;;;9.98;2.10;;;11.80;99.90;;;;;;6351385;22;20014;-78
2022/12/19 10:12:45;;;;;;;11.77;2.13;;;11.80;99.90;;;;;;6291433;22;20015;-78
2022/12/19 10:15:36;;;;;;;10.18;2.35;;;11.80;99.90;;;;;;6327235;22;20022;-78
2022/12/19 10:18:15;;;;;;;10.98;2.13;;;11.80;99.90;;;;;;6324756;22;20342;-77
2022/12/19 10:21:00;;;;;;;16.08;2.67;;;12.30;99.90;;;;;;6289824;22;20010;-77
2022/12/19 10:23:51;;;;;;;12.68;2.60;;;13.10;99.90;;;;;;6324839;22;20307;-78
2022/12/19 10:26:35;;;;;;;13.55;2.97;;;9.50;99.90;;;;;;6353477;22;20010;-77
2022/12/19 10:29:15;;;;;;;23.35;3.22;;;11.80;99.90;;;;;;6299991;22;20450;-78
2022/12/19 10:31:54;;;;;;;16.27;3.35;;;11.80;99.90;;;;;;6324299;22;20022;-78
2022/12/19 10:34:39;;;;;;;22.48;3.65;;;11.80;99.90;;;;;;6300368;22;20014;-78
2022/12/19 10:37:21;;;;;;;16.67;3.40;;;12.00;99.90;;;;;;6289147;22;20022;-77
2022/12/19 10:40:23;;;;;;;19.02;3.63;;;11.80;99.90;;;;;;6314986;22;20011;-78
2022/12/19 10:43:31;;;;;;;30.90;4.05;;;11.90;99.90;;;;;;6308962;22;20014;-77
2022/12/19 10:46:16;;;;;;;22.30;3.95;;;11.80;99.90;;;;;;6342603;22;20018;-77
2022/12/19 10:48:44;;;;;;;17.42;3.58;;;11.80;99.90;;;;;;6289443;22;20018;-77
2022/12/19 10:51:26;;;;;;;24.42;3.80;;;12.50;99.90;;;;;;6262825;22;20019;-78
2022/12/19 10:53:59;;;;;;;31.77;4.50;;;11.80;99.90;;;;;;6346795;22;20021;-79
2022/12/19 10:56:29;;;;;;;30.25;4.10;;;11.90;99.90;;;;;;6315362;22;20324;-78
2022/12/19 10:59:20;;;;;;;22.10;3.97;;;11.70;99.90;;;;;;6290236;22;20011;-77
2022/12/19 11:01:48;;;;;;;16.35;3.00;;;11.80;99.90;;;;;;6325539;22;20566;-77
2022/12/19 11:04:34;;;;;;;25.40;3.83;;;11.80;99.90;;;;;;6324149;22;20015;-78
2022/12/19 11:07:18;;;;;;;23.27;3.65;;;11.90;99.90;;;;;;6314426;22;20293;-77
2022/12/19 11:09:46;;;;;;;19.33;2.88;;;11.80;99.90;;;;;;6325385;22;20011;-78
2022/12/19 11:12:35;;;;;;;22.42;3.30;;;11.90;99.90;;;;;;6352188;22;20033;-77
2022/12/19 11:15:22;;;;;;;13.40;3.05;;;11.90;99.90;;;;;;6303666;22;20011;-78
2022/12/19 11:18:11;;;;;;;13.80;2.55;;;11.90;99.90;;;;;;6292632;22;20420;-79
2022/12/19 11:21:05;;;;;;;10.77;2.13;;;11.80;99.90;;;;;;6352187;22;20415;-75
2022/12/19 11:23:58;;;;;;;15.43;2.40;;;11.90;99.90;;;;;;6323525;22;20015;-79
2022/12/19 11:26:49;;;;;;;14.80;1.98;;;11.90;99.90;;;;;;6318872;22;20026;-77
2022/12/19 11:29:50;;;;;;;10.90;2.63;;;11.90;99.90;;;;;;6324748;22;20022;-76
2022/12/19 11:32:40;;;;;;;10.30;2.15;;;11.80;99.90;;;;;;6341977;22;20011;-77
2022/12/19 11:35:24;;;;;;;14.20;1.98;;;11.90;99.90;;;;;;6289806;22;20015;-79
2022/12/19 11:38:05;;;;;;;10.27;2.33;;;11.80;99.90;;;;;;6350824;22;20297;-78
2022/12/19 11:40:48;;;;;;;13.30;2.22;;;12.10;99.90;;;;;;6311126;22;20022;-78
2022/12/19 11:43:26;;;;;;;12.70;2.58;;;11.90;99.90;;;;;;6322930;22;20014;-77
2022/12/19 11:46:39;;;;;;;11.43;2.35;;;11.80;99.90;;;;;;6319142;22;20022;-78
2022/12/19 11:49:22;;;;;;;16.65;2.85;;;11.80;99.90;;;;;;6324764;22;20014;-79
2022/12/19 11:51:49;;;;;;;13.10;3.22;;;11.80;99.90;;;;;;6324008;22;20026;-80
2022/12/19 11:54:23;;;;;;;22.02;3.60;;;11.80;99.90;;;;;;6341296;22;20018;-78
2022/12/19 11:56:50;;;;;;;24.27;3.75;;;11.80;99.90;;;;;;6323272;22;20420;-78
2022/12/19 11:59:40;;;;;;;16.05;3.53;;;11.80;99.90;;;;;;6288773;22;20023;-78
2022/12/19 12:02:13;;;;;;;25.20;4.10;;;11.80;99.90;;;;;;6287461;22;20026;-81
2022/12/19 12:04:53;;;;;;;28.30;4.18;;;11.80;99.90;;;;;;6324066;22;20415;-77
2022/12/19 12:07:21;;;;;;;24.50;4.20;;;11.80;99.90;;;;;;6352243;22;20007;-77
2022/12/19 12:10:19;;;;;;;20.33;4.03;;;11.90;99.90;;;;;;6313502;22;20289;-78
2022/12/19 12:13:33;;;;;;;19.98;3.42;;;11.90;99.90;;;;;;6351959;22;20022;-77
2022/12/19 12:16:26;;;;;;;17.83;3.45;;;12.00;99.90;;;;;;6341599;22;20029;-77
2022/12/19 12:19:28;;;;;;;23.42;4.15;;;11.90;99.90;;;;;;6351855;22;20022;-77
2022/12/19 12:22:45;;;;;;;27.75;4.03;;;12.00;99.90;;;;;;6288863;22;20041;-78
2022/12/19 12:25:46;;;;;;;26.92;4.68;;;12.00;99.90;;;;;;6314367;22;20014;-78
2022/12/19 12:28:52;;;;;;;27.48;4.63;;;12.10;99.90;;;;;;6350746;22;20011;-79
2022/12/19 12:32:08;;;;;;;26.50;4.00;;;12.10;99.90;;;;;;6315939;22;20022;-76
2022/12/19 12:34:59;;;;;;;21.42;3.63;;;12.10;99.90;;;;;;6315194;22;20014;-79
2022/12/19 12:38:16;;;;;;;24.63;4.50;;;12.10;99.90;;;;;;6291017;22;20041;-80
2022/12/19 12:41:02;;;;;;;23.42;3.65;;;12.10;99.90;;;;;;6313585;22;20014;-79
2022/12/19 12:43:59;;;;;;;34.90;4.35;;;12.10;99.90;;;;;;6312023;22;20015;-80
2022/12/19 12:46:33;;;;;;;30.97;4.50;;;12.20;99.90;;;;;;6287562;22;20018;-77
2022/12/19 12:49:04;;;;;;;20.80;3.60;;;12.10;99.90;;;;;;6324136;22;20288;-77
2022/12/19 12:51:33;;;;;;;19.48;3.50;;;12.10;99.90;;;;;;6312243;22;20014;-78
2022/12/19 12:54:06;;;;;;;21.20;3.58;;;12.10;99.90;;;;;;6300276;22;20019;-78
2022/12/19 12:56:36;;;;;;;16.75;3.00;;;12.10;99.90;;;;;;6349722;22;20007;-78
2022/12/19 12:59:20;;;;;;;19.58;3.65;;;12.10;99.90;;;;;;6287404;22;20025;-79
2022/12/19 13:02:05;;;;;;;27.15;3.97;;;12.20;99.90;;;;;;6288023;22;20022;-78
2022/12/19 13:04:40;;;;;;;18.95;3.53;;;12.20;99.90;;;;;;6286037;22;20015;-79
2022/12/19 13:07:25;;;;;;;23.50;3.47;;;13.90;99.90;;;;;;6324132;22;20006;-78
2022/12/19 13:10:29;;;;;;;16.35;3.40;;;12.20;99.90;;;;;;6349671;22;20014;-78
2022/12/19 13:13:12;;;;;;;22.45;3.85;;;12.20;99.90;;;;;;6220236;23;20024;-78
2022/12/19 13:15:45;;;;;;;19.10;2.92;;;12.10;99.90;;;;;;6336848;22;20026;-78
2022/12/19 13:18:27;;;;;;;29.45;3.78;;;12.90;99.90;;;;;;6311523;22;20015;-79
2022/12/19 13:20:55;;;;;;;23.15;3.60;;;12.20;99.90;;;;;;6350699;22;20011;-78
2022/12/19 13:23:25;;;;;;;26.88;4.07;;;12.80;99.90;;;;;;6311771;22;20015;-78
2022/12/19 13:25:53;;;;;;;16.80;3.42;;;12.20;99.90;;;;;;6323956;22;20026;-77
2022/12/19 13:28:23;;;;;;;20.75;3.58;;;12.20;99.90;;;;;;6350645;22;20019;-77